Tisul, Russia
Current Conditions -  °F | °C
As of 12:30 AM on Tuesday 21 Oct 2014 (Local Time) from UNEE Reporting Station
Moderate Fog Moderate Fog  
Wind Chill: 39°   Ceiling: 200
Heat Index: 43°   Visibility: 0.12mi
Dew Point: 43°   Wind: 7mph
Humidity: 100%   Direction: 170°S
Pressure: 29.59"   Gusts: NA
Location:  55.76°N, 88.31°E
Report Text: UNEE 201730Z 17003MPS 0200 R23/0600 FG VV002 06/06 Q1002 NOSIGRMK QBB060 QFE728 23290055
Loading
Personal Weather Stations






























Interactive Weather Map
Tropical Storm Tracking
New forecast layout! Learn more

10-Day Weather Forecast

Advertisements
Track Severe Weather on mobile